Time;durP1;ratioP1;P1;durP2;ratioP2;P2;SDS_P1;SDS_P2;PMS_P1;PMS_P2;Temp;Humidity;BMP_temperature;BMP_pressure;BME280_temperature;BME280_humidity;BME280_pressure;Samples;Min_cycle;Max_cycle;Signal;HPM_P1;HPM_P2
2022/02/06 00:00:53;;;;;;;22.73;13.13;;;;;;;-2.58;80.02;98161.89;1678618;85;21107;-82
2022/02/06 00:03:21;;;;;;;27.70;14.40;;;;;;;-2.55;80.12;98159.80;1678496;85;21021;-82
2022/02/06 00:05:49;;;;;;;29.15;14.53;;;;;;;-2.54;80.16;98174.52;1679108;84;21017;-82
2022/02/06 00:08:16;;;;;;;29.42;15.23;;;;;;;-2.47;80.12;98171.66;1696487;83;21500;-83
2022/02/06 00:10:44;;;;;;;28.10;14.65;;;;;;;-2.41;80.21;98174.00;1696373;84;20989;-83
2022/02/06 00:13:10;;;;;;;30.40;16.67;;;;;;;-2.35;80.25;98169.39;1696109;84;21518;-83
2022/02/06 00:15:37;;;;;;;29.63;15.40;;;;;;;-2.29;80.27;98165.64;1678623;85;21041;-85
2022/02/06 00:18:04;;;;;;;31.37;17.05;;;;;;;-2.27;80.24;98170.88;1678567;85;21025;-83
2022/02/06 00:20:35;;;;;;;40.05;19.15;;;;;;;-2.25;80.24;98173.08;1678647;85;21045;-83
2022/02/06 00:23:03;;;;;;;34.80;18.40;;;;;;;-2.21;80.52;98176.65;1689671;85;20997;-83
2022/02/06 00:30:31;;;;;;;27.82;13.98;;;;;;;-2.18;79.94;98180.59;1684686;84;21010;-83
2022/02/06 00:33:01;;;;;;;31.85;16.90;;;;;;;-2.19;80.08;98165.87;1671584;86;21089;-83
2022/02/06 00:41:11;;;;;;;40.03;18.98;;;;;;;-2.24;79.81;98165.77;1680784;84;21036;-83
2022/02/06 00:43:16;;;;;;;36.48;17.77;;;;;;;-2.27;80.71;98169.17;1698628;84;21080;-83
2022/02/06 00:45:42;;;;;;;36.53;19.85;;;;;;;-2.29;80.33;98175.13;1701442;84;21458;-83
2022/02/06 00:48:09;;;;;;;35.33;17.35;;;;;;;-2.29;80.14;98176.02;1702014;84;21082;-84
2022/02/06 00:50:38;;;;;;;31.95;15.85;;;;;;;-2.31;80.17;98171.23;1695132;84;21021;-82
2022/02/06 00:53:08;;;;;;;37.67;19.98;;;;;;;-2.34;79.99;98166.36;1673520;85;21422;-83
2022/02/06 00:55:34;;;;;;;37.48;17.92;;;;;;;-2.39;80.65;98165.84;1687841;84;21078;-81
2022/02/06 00:58:00;;;;;;;46.70;20.55;;;;;;;-2.43;80.35;98165.72;1687685;84;21466;-83
2022/02/06 01:00:27;;;;;;;39.30;19.07;;;;;;;-2.46;80.63;98165.22;1641549;85;21083;-82
2022/02/06 01:02:54;;;;;;;40.33;19.12;;;;;;;-2.50;81.75;98159.48;1638521;88;21034;-82
2022/02/06 01:05:21;;;;;;;40.83;19.30;;;;;;;-2.51;81.18;98156.44;1638513;88;21112;-83
2022/02/06 01:07:49;;;;;;;32.65;16.80;;;;;;;-2.49;80.86;98152.59;1638220;87;21089;-83
2022/02/06 01:10:16;;;;;;;30.88;16.20;;;;;;;-2.55;80.39;98161.09;1655240;86;21028;-83
2022/02/06 01:12:48;;;;;;;28.00;15.53;;;;;;;-2.57;80.55;98163.64;1714753;83;21051;-84
2022/02/06 01:15:19;;;;;;;32.38;16.20;;;;;;;-2.57;81.14;98154.56;1674710;86;21484;-84
2022/02/06 01:17:49;;;;;;;32.60;15.05;;;;;;;-2.57;81.20;98155.00;1701662;84;21087;-84
2022/02/06 01:22:46;;;;;;;29.10;15.05;;;;;;;-2.66;80.18;98159.55;1702146;84;21005;-84
2022/02/06 01:25:12;;;;;;;30.10;14.85;;;;;;;-2.72;80.23;98146.39;1700728;84;21053;-84
2022/02/06 01:27:47;;;;;;;30.88;14.30;;;;;;;-2.73;80.10;98157.61;1701323;84;21035;-84
2022/02/06 01:30:15;;;;;;;29.05;13.32;;;;;;;-2.82;80.22;98151.77;1701412;84;21403;-84
2022/02/06 01:32:48;;;;;;;26.75;13.65;;;;;;;-2.86;80.23;98134.36;1701300;84;21045;-84
2022/02/06 01:35:13;;;;;;;24.02;12.58;;;;;;;-2.90;80.07;98141.60;1700597;84;21017;-84
2022/02/06 01:37:47;;;;;;;27.93;12.93;;;;;;;-2.99;80.22;98139.21;1701430;84;21049;-84
2022/02/06 01:40:18;;;;;;;27.10;13.90;;;;;;;-3.01;80.70;98130.53;1702136;83;21035;-84
2022/02/06 01:42:52;;;;;;;22.35;12.80;;;;;;;-3.01;80.59;98142.60;1679226;84;21415;-84
2022/02/06 02:04:26;;;;;;;29.23;13.98;;;;;;;-3.34;81.76;98144.31;1701876;84;21062;-82
2022/02/06 02:46:26;;;;;;;24.67;13.05;;;;;;;-3.67;81.49;98128.25;1686314;85;21017;-83
2022/02/06 02:48:43;;;;;;;24.80;13.22;;;;;;;-3.66;81.95;98132.62;1684704;85;21013;-82
2022/02/06 02:51:10;;;;;;;22.37;11.90;;;;;;;-3.66;81.45;98131.33;1686393;85;21029;-83
2022/02/06 02:53:47;;;;;;;24.02;12.25;;;;;;;-3.70;81.41;98139.39;1686491;85;21046;-83
2022/02/06 03:01:25;;;;;;;28.52;14.47;;;;;;;-3.77;82.42;98135.77;1686627;85;21060;-83
2022/02/06 03:03:41;;;;;;;;;;;;;;;-3.78;82.29;98140.91;1687429;85;21481;-83
2022/02/06 03:06:09;;;;;;;18.82;9.78;;;;;;;-3.77;81.81;98147.83;1686266;85;20132;-83
2022/02/06 03:08:38;;;;;;;23.77;11.10;;;;;;;-3.86;81.70;98154.48;1686450;85;21064;-83
2022/02/06 03:11:09;;;;;;;17.82;9.40;;;;;;;-3.91;81.57;98149.58;1686372;85;21025;-83
2022/02/06 03:13:49;;;;;;;27.60;13.08;;;;;;;-3.93;81.92;98148.67;1686536;85;21001;-84
2022/02/06 03:21:31;;;;;;;26.17;11.20;;;;;;;-3.98;82.43;98142.47;1723640;83;21413;-82
2022/02/06 03:23:58;;;;;;;23.92;11.90;;;;;;;-4.00;81.98;98142.42;1722279;83;20973;-82
2022/02/06 03:26:26;;;;;;;25.30;12.03;;;;;;;-4.03;82.07;98131.95;1723372;83;21468;-83
2022/02/06 03:28:54;;;;;;;21.57;11.30;;;;;;;-4.04;82.17;98137.97;1722068;83;21452;-82
2022/02/06 03:31:22;;;;;;;23.95;12.10;;;;;;;-4.06;81.98;98136.17;1711490;83;21056;-82
2022/02/06 03:33:50;;;;;;;23.18;10.78;;;;;;;-4.07;82.41;98137.87;1689228;85;21028;-82
2022/02/06 03:36:19;;;;;;;20.30;10.50;;;;;;;-4.08;82.06;98137.41;1689328;85;21040;-82
2022/02/06 03:38:48;;;;;;;21.20;10.13;;;;;;;-4.13;81.92;98135.98;1689287;85;21025;-83
2022/02/06 03:41:17;;;;;;;22.48;11.88;;;;;;;-4.18;82.05;98145.72;1689265;83;21497;-84
2022/02/06 03:44:01;;;;;;;18.62;10.80;;;;;;;-4.19;82.14;98135.77;1689461;83;21406;-84
2022/02/06 03:46:30;;;;;;;21.90;10.68;;;;;;;-4.22;82.24;98145.16;1687517;84;21510;-83
2022/02/06 03:49:06;;;;;;;22.35;10.90;;;;;;;-4.26;82.17;98139.91;1688884;85;21044;-84
2022/02/06 03:51:30;;;;;;;22.15;11.40;;;;;;;-4.28;82.02;98141.55;1693931;83;20999;-83
2022/02/06 03:53:53;;;;;;;20.17;10.45;;;;;;;-4.32;82.06;98141.41;1717467;83;20992;-83
2022/02/06 03:56:21;;;;;;;21.27;10.95;;;;;;;-4.33;82.04;98140.95;1718366;83;20971;-83
2022/02/06 03:58:49;;;;;;;22.73;10.38;;;;;;;-4.40;82.19;98136.86;1718421;83;21433;-81
2022/02/06 04:01:16;;;;;;;22.65;11.35;;;;;;;-4.42;82.14;98141.52;1694777;83;20985;-82
2022/02/06 04:03:44;;;;;;;23.40;11.53;;;;;;;-4.44;82.42;98138.88;1689216;83;21577;-83
2022/02/06 04:06:10;;;;;;;23.35;11.30;;;;;;;-4.48;82.36;98145.20;1689259;84;21032;-83
2022/02/06 04:08:39;;;;;;;22.77;11.00;;;;;;;-4.47;82.42;98136.20;1689178;85;21092;-84
2022/02/06 04:11:15;;;;;;;23.50;11.03;;;;;;;-4.46;82.63;98143.53;1710708;83;21055;-83
2022/02/06 04:13:41;;;;;;;22.32;11.55;;;;;;;-4.45;82.71;98141.44;1717133;83;21008;-83
2022/02/06 04:16:11;;;;;;;21.65;10.45;;;;;;;-4.41;82.91;98133.81;1717794;83;21433;-83
2022/02/06 04:19:33;;;;;;;19.80;10.53;;;;;;;-4.41;82.56;98139.39;1717823;83;21499;-83
2022/02/06 04:21:09;;;;;;;21.65;10.53;;;;;;;-4.43;82.56;98139.36;1689429;83;21029;-84
2022/02/06 04:23:36;;;;;;;25.10;11.65;;;;;;;-4.40;83.00;98134.27;1689475;84;21395;-84
2022/02/06 04:26:02;;;;;;;24.70;11.88;;;;;;;-4.37;82.82;98132.19;1689504;84;21054;-84
2022/02/06 04:28:28;;;;;;;20.40;9.60;;;;;;;-4.33;82.60;98134.48;1694151;83;21080;-84
2022/02/06 04:30:55;;;;;;;16.75;8.43;;;;;;;-4.40;82.32;98126.94;1702149;83;20992;-85
2022/02/06 04:33:22;;;;;;;16.48;9.63;;;;;;;-4.45;82.34;98133.67;1701601;84;21112;-85
2022/02/06 04:35:51;;;;;;;20.00;10.20;;;;;;;-4.46;82.48;98136.66;1701609;84;21487;-84
2022/02/06 04:38:37;;;;;;;25.02;10.70;;;;;;;-4.46;82.75;98134.08;1701372;84;21034;-83
2022/02/06 04:44:13;;;;;;;15.00;8.43;;;;;;;-4.49;82.36;98131.38;1668003;85;21057;-83
2022/02/06 05:31:56;;;;;;;17.92;8.90;;;;;;;-4.83;82.60;98144.48;1701611;84;21026;-84
2022/02/06 05:34:08;;;;;;;16.77;8.38;;;;;;;-4.83;82.71;98140.60;1694513;84;21022;-78
2022/02/06 05:36:35;;;;;;;22.67;10.43;;;;;;;-4.84;82.50;98150.48;1693776;84;21042;-78
2022/02/06 05:39:03;;;;;;;20.27;10.28;;;;;;;-4.84;82.73;98140.14;1699810;84;21041;-78
2022/02/06 05:41:30;;;;;;;21.00;11.10;;;;;;;-4.83;82.61;98144.48;1693725;84;20954;-77
2022/02/06 05:43:57;;;;;;;15.10;7.75;;;;;;;-4.80;82.70;98143.30;1687077;84;21009;-77
2022/02/06 05:46:23;;;;;;;21.50;9.98;;;;;;;-4.77;82.60;98138.25;1686554;84;21032;-78
2022/02/06 05:48:50;;;;;;;17.07;8.78;;;;;;;-4.77;82.56;98147.30;1677030;84;21027;-77
2022/02/06 05:51:17;;;;;;;16.70;7.83;;;;;;;-4.81;82.41;98143.70;1673406;85;21086;-79
2022/02/06 05:53:44;;;;;;;13.43;7.33;;;;;;;-4.82;82.50;98134.63;1687417;84;20991;-77
2022/02/06 05:56:11;;;;;;;16.42;8.83;;;;;;;-4.85;82.45;98153.91;1686097;84;21023;-77
2022/02/06 05:58:38;;;;;;;15.45;7.60;;;;;;;-4.84;82.68;98144.91;1687289;84;21106;-77
2022/02/06 06:01:04;;;;;;;15.95;7.80;;;;;;;-4.83;82.55;98162.58;1689544;84;21009;-78
2022/02/06 06:03:31;;;;;;;15.13;8.15;;;;;;;-4.85;82.54;98160.37;1682736;84;20957;-78
2022/02/06 06:05:57;;;;;;;17.62;9.00;;;;;;;-4.83;82.56;98169.04;1685195;84;21088;-76
2022/02/06 06:08:24;;;;;;;19.60;10.03;;;;;;;-4.84;82.64;98169.48;1627146;88;21095;-78
2022/02/06 06:10:50;;;;;;;15.80;8.68;;;;;;;-4.82;82.82;98178.58;1642153;85;21010;-78
2022/02/06 06:13:17;;;;;;;18.37;9.33;;;;;;;-4.80;82.87;98177.81;1700802;84;21052;-78
2022/02/06 06:15:43;;;;;;;20.85;10.63;;;;;;;-4.79;82.59;98177.38;1654375;84;21065;-78
2022/02/06 06:18:13;;;;;;;24.52;10.05;;;;;;;-4.75;82.68;98194.77;1619440;88;21092;-77
2022/02/06 06:20:40;;;;;;;21.00;10.95;;;;;;;-4.79;82.79;98189.02;1618657;89;21084;-77
2022/02/06 06:23:06;;;;;;;20.37;10.35;;;;;;;-4.77;82.76;98182.20;1651298;87;21044;-77
2022/02/06 06:25:39;;;;;;;23.25;11.73;;;;;;;-4.72;82.58;98194.87;1700698;84;21064;-77
2022/02/06 06:28:07;;;;;;;18.95;10.43;;;;;;;-4.70;82.61;98184.16;1701378;84;21017;-77
2022/02/06 06:30:38;;;;;;;23.87;10.70;;;;;;;-4.65;82.59;98200.71;1687702;82;21025;-77
2022/02/06 06:33:06;;;;;;;24.18;10.90;;;;;;;-4.63;82.16;98202.06;1678110;85;21457;-73
2022/02/06 06:35:34;;;;;;;27.45;11.63;;;;;;;-4.62;82.14;98203.81;1678574;85;21100;-72
2022/02/06 06:38:01;;;;;;;20.62;10.03;;;;;;;-4.56;82.17;98204.45;1678481;85;21005;-72
2022/02/06 06:40:29;;;;;;;24.37;11.03;;;;;;;-4.55;82.12;98201.92;1688110;85;21080;-72
2022/02/06 06:42:56;;;;;;;26.65;10.93;;;;;;;-4.49;82.06;98206.41;1696444;84;20985;-74
2022/02/06 06:45:24;;;;;;;24.07;12.45;;;;;;;-4.46;81.98;98206.52;1696493;84;21128;-74
2022/02/06 06:47:56;;;;;;;24.45;12.40;;;;;;;-4.43;81.89;98213.50;1696617;83;21024;-74
2022/02/06 06:50:32;;;;;;;21.45;10.48;;;;;;;-4.37;81.73;98205.94;1687705;84;21099;-74
2022/02/06 06:52:55;;;;;;;23.98;10.93;;;;;;;-4.30;81.85;98197.96;1678105;85;21026;-74
2022/02/06 06:55:22;;;;;;;21.30;11.93;;;;;;;-4.24;81.48;98205.92;1678580;85;21061;-74
2022/02/06 06:57:58;;;;;;;27.27;12.90;;;;;;;-4.14;81.18;98209.70;1680384;84;21033;-74
2022/02/06 07:02:46;;;;;;;28.45;13.48;;;;;;;-4.04;80.55;98203.09;1689560;83;21018;-74
2022/02/06 07:05:13;;;;;;;31.33;13.68;;;;;;;-4.00;80.68;98201.08;1678374;85;21017;-74
2022/02/06 07:07:39;;;;;;;28.77;13.75;;;;;;;-3.96;80.75;98196.47;1679064;84;21030;-74
2022/02/06 07:10:07;;;;;;;31.97;14.38;;;;;;;-3.89;80.49;98190.66;1696463;85;20996;-74
2022/02/06 07:12:34;;;;;;;31.75;14.45;;;;;;;-3.86;80.69;98184.70;1696489;84;21124;-74
2022/02/06 07:15:01;;;;;;;27.20;13.83;;;;;;;-3.78;80.43;98174.14;1695049;83;21032;-74
2022/02/06 07:17:28;;;;;;;29.23;13.43;;;;;;;-3.71;80.37;98176.09;1696239;84;21053;-74
2022/02/06 07:19:54;;;;;;;28.55;14.13;;;;;;;-3.65;79.75;98171.50;1696575;84;21001;-74
2022/02/06 07:22:21;;;;;;;28.47;13.83;;;;;;;-3.52;80.10;98169.28;1696496;85;21012;-74
2022/02/06 07:24:49;;;;;;;30.12;14.53;;;;;;;-3.45;80.31;98177.28;1687381;83;21538;-74
2022/02/06 07:27:28;;;;;;;30.25;14.28;;;;;;;-3.36;80.41;98175.36;1690699;84;21052;-74
2022/02/06 07:29:53;;;;;;;25.55;13.35;;;;;;;-3.24;80.22;98172.25;1699192;82;21438;-73
2022/02/06 07:32:21;;;;;;;31.12;13.90;;;;;;;-3.14;80.07;98173.40;1687939;84;21085;-74
2022/02/06 07:34:48;;;;;;;30.00;14.63;;;;;;;-3.03;79.94;98172.81;1667022;85;21439;-74
2022/02/06 07:37:15;;;;;;;30.43;13.85;;;;;;;-2.96;80.03;98170.83;1638598;88;21038;-74
2022/02/06 07:39:42;;;;;;;26.97;14.00;;;;;;;-2.85;80.09;98173.31;1638496;88;21041;-74
2022/02/06 07:42:11;;;;;;;36.17;16.60;;;;;;;-2.75;79.99;98167.94;1654273;86;21068;-74
2022/02/06 07:44:42;;;;;;;29.72;15.45;;;;;;;-2.69;79.53;98169.39;1638716;87;21050;-74
2022/02/06 07:47:14;;;;;;;34.48;17.32;;;;;;;-2.59;79.71;98165.33;1697211;84;21013;-74
2022/02/06 07:49:43;;;;;;;29.25;15.03;;;;;;;-2.46;79.69;98161.33;1645217;86;21018;-74
2022/02/06 07:52:09;;;;;;;31.55;15.40;;;;;;;-2.38;79.45;98161.52;1660629;86;21414;-74
2022/02/06 07:54:36;;;;;;;31.90;16.27;;;;;;;-2.26;79.54;98158.34;1672317;86;21061;-72
2022/02/06 07:57:04;;;;;;;31.33;15.78;;;;;;;-2.13;79.54;98147.42;1626232;88;21077;-72
2022/02/06 07:59:33;;;;;;;37.60;17.25;;;;;;;-1.97;79.68;98145.17;1638564;88;21002;-74
2022/02/06 08:02:02;;;;;;;33.05;16.82;;;;;;;-1.75;78.38;98145.64;1638495;87;21037;-74
2022/02/06 08:04:29;;;;;;;36.65;17.12;;;;;;;-1.54;79.30;98143.94;1626072;88;21085;-74
2022/02/06 08:06:56;;;;;;;35.60;17.37;;;;;;;-1.32;79.01;98132.70;1674181;86;21065;-74
2022/02/06 08:12:09;;;;;;;33.75;16.95;;;;;;;-0.95;78.58;98142.94;1705151;84;21016;-72
2022/02/06 08:14:50;;;;;;;33.23;16.32;;;;;;;-0.75;78.59;98125.52;1684657;85;21041;-73
2022/02/06 08:17:30;;;;;;;40.88;18.80;;;;;;;-0.59;78.52;98126.23;1684763;85;21037;-73
2022/02/06 08:19:59;;;;;;;37.58;17.87;;;;;;;-0.40;78.52;98129.15;1679883;85;22277;-73
2022/02/06 08:22:27;;;;;;;34.58;17.27;;;;;;;-0.23;78.13;98128.53;1695633;84;21016;-73
2022/02/06 08:24:54;;;;;;;33.55;17.27;;;;;;;-0.13;76.77;98120.00;1714743;84;21545;-74
2022/02/06 08:27:24;;;;;;;38.70;19.00;;;;;;;-0.01;76.93;98118.90;1714690;83;20989;-74
2022/02/06 08:29:51;;;;;;;37.08;18.55;;;;;;;0.11;77.14;98123.83;1687473;84;21062;-73
2022/02/06 08:32:22;;;;;;;36.40;18.48;;;;;;;0.25;77.19;98121.44;1678304;85;21049;-74
2022/02/06 08:34:49;;;;;;;35.33;18.23;;;;;;;0.39;77.11;98119.01;1678692;85;21021;-73
2022/02/06 08:37:16;;;;;;;34.75;16.77;;;;;;;0.54;76.34;98118.31;1678492;85;20997;-74
2022/02/06 08:39:43;;;;;;;31.40;17.52;;;;;;;0.63;75.72;98112.36;1690192;85;21036;-73
2022/02/06 08:42:12;;;;;;;33.75;17.67;;;;;;;0.75;75.39;98117.70;1696464;85;21383;-74
2022/02/06 08:44:42;;;;;;;33.30;17.25;;;;;;;0.87;75.79;98114.81;1679957;85;21474;-73
2022/02/06 08:47:12;;;;;;;32.48;17.02;;;;;;;0.98;75.78;98112.30;1680075;85;21053;-74
2022/02/06 08:49:40;;;;;;;31.37;17.95;;;;;;;1.15;75.73;98114.66;1688765;84;21024;-73
2022/02/06 08:52:09;;;;;;;33.75;18.17;;;;;;;1.30;75.48;98115.68;1696643;83;21583;-74
2022/02/06 08:54:38;;;;;;;32.35;16.95;;;;;;;1.38;74.78;98107.50;1696583;84;21023;-74
2022/02/06 08:57:26;;;;;;;31.25;16.82;;;;;;;1.50;74.67;98104.09;1693453;84;21010;-74
2022/02/06 08:59:56;;;;;;;29.85;16.45;;;;;;;1.61;73.75;98106.80;1678571;85;21028;-74
2022/02/06 09:02:24;;;;;;;28.57;15.98;;;;;;;1.71;71.86;98099.92;1678590;85;21028;-74
2022/02/06 09:04:52;;;;;;;29.02;16.20;;;;;;;1.79;72.39;98098.22;1678524;85;21084;-74
2022/02/06 09:07:21;;;;;;;30.10;15.40;;;;;;;1.88;71.61;98097.86;1682560;85;20961;-74
2022/02/06 09:09:50;;;;;;;29.48;16.45;;;;;;;1.93;71.78;98094.84;1696601;84;21493;-73
2022/02/06 09:12:17;;;;;;;28.77;15.83;;;;;;;2.02;73.00;98092.71;1696511;85;21418;-73
2022/02/06 09:14:46;;;;;;;27.32;14.28;;;;;;;2.09;72.11;98092.78;1696515;83;21448;-74
2022/02/06 09:17:13;;;;;;;26.57;14.70;;;;;;;2.11;72.12;98079.28;1681079;84;21075;-74
2022/02/06 09:19:40;;;;;;;28.38;14.78;;;;;;;2.17;71.84;98079.75;1678498;85;21442;-73
2022/02/06 09:22:08;;;;;;;24.00;12.45;;;;;;;2.22;71.24;98085.88;1680389;84;21063;-73
2022/02/06 09:24:36;;;;;;;21.75;12.30;;;;;;;2.17;68.62;98077.14;1696889;83;21040;-74
2022/02/06 09:27:06;;;;;;;23.07;12.55;;;;;;;2.10;69.00;98074.03;1696501;84;21004;-75
2022/02/06 09:29:35;;;;;;;19.23;11.12;;;;;;;2.16;70.62;98081.05;1696650;84;21108;-74
2022/02/06 09:37:07;;;;;;;18.67;10.20;;;;;;;2.38;69.95;98073.73;1708848;84;21000;-73
2022/02/06 09:39:39;;;;;;;15.65;8.80;;;;;;;2.49;69.26;98069.02;1688004;84;21458;-73
2022/02/06 09:42:06;;;;;;;13.65;7.85;;;;;;;2.61;67.01;98058.58;1673657;86;21093;-73
2022/02/06 09:44:35;;;;;;;13.22;7.25;;;;;;;2.76;66.22;98068.23;1647216;86;21532;-73
2022/02/06 09:47:03;;;;;;;18.07;9.48;;;;;;;2.88;66.81;98062.58;1702057;84;21422;-73
2022/02/06 09:49:32;;;;;;;17.12;9.85;;;;;;;3.00;65.74;98057.35;1702045;84;21036;-73
2022/02/06 09:51:59;;;;;;;17.17;9.68;;;;;;;3.10;62.93;98053.02;1702055;84;20957;-73
2022/02/06 09:54:28;;;;;;;13.95;8.73;;;;;;;3.22;65.84;98041.69;1688730;84;21017;-73
2022/02/06 09:56:58;;;;;;;14.15;7.92;;;;;;;3.39;66.30;98043.00;1673975;86;21009;-72
2022/02/06 09:59:25;;;;;;;11.05;7.50;;;;;;;3.59;65.54;98041.23;1673716;86;21510;-76
2022/02/06 10:01:55;;;;;;;12.58;7.08;;;;;;;3.74;63.41;98039.91;1673983;85;21070;-76
2022/02/06 10:04:26;;;;;;;13.18;7.35;;;;;;;3.91;62.67;98032.47;1671966;85;21037;-76
2022/02/06 10:07:06;;;;;;;13.03;7.67;;;;;;;4.07;63.21;98030.69;1672858;86;21061;-77
2022/02/06 10:09:41;;;;;;;12.90;6.55;;;;;;;4.25;64.69;98024.93;1673956;85;21041;-76
2022/02/06 10:12:10;;;;;;;11.45;6.70;;;;;;;4.30;61.07;98022.73;1673919;86;21053;-76
2022/02/06 10:14:37;;;;;;;10.18;5.90;;;;;;;4.36;61.90;98020.50;1649133;85;21384;-77
2022/02/06 10:17:04;;;;;;;11.65;6.62;;;;;;;4.46;60.82;98009.55;1702081;84;21036;-76
2022/02/06 10:19:31;;;;;;;13.35;6.80;;;;;;;4.57;59.44;98001.63;1702062;84;21425;-76
2022/02/06 10:21:59;;;;;;;12.05;6.83;;;;;;;4.68;58.55;97995.87;1689771;84;21037;-76
2022/02/06 10:24:30;;;;;;;14.28;8.18;;;;;;;4.84;61.00;97986.58;1652182;86;21454;-77
2022/02/06 10:29:44;;;;;;;15.72;9.48;;;;;;;5.07;58.00;97973.27;1673554;86;21093;-76
2022/02/06 10:32:12;;;;;;;17.40;8.33;;;;;;;5.23;59.12;97968.77;1656887;84;21058;-76
2022/02/06 10:34:37;;;;;;;13.43;7.60;;;;;;;5.37;60.64;97969.10;1679627;84;21051;-76
2022/02/06 10:37:15;;;;;;;14.35;7.53;;;;;;;5.47;57.83;97959.36;1702068;84;20992;-76
2022/02/06 10:40:05;;;;;;;13.98;7.87;;;;;;;5.55;59.73;97951.84;1702149;84;21008;-76
2022/02/06 10:42:37;;;;;;;8.08;4.50;;;;;;;5.64;54.79;97949.98;1690886;84;21032;-76
2022/02/06 10:45:25;;;;;;;6.67;4.20;;;;;;;5.73;57.59;97937.20;1687714;84;21072;-76
2022/02/06 10:47:54;;;;;;;6.08;4.10;;;;;;;5.79;57.31;97945.91;1688020;85;21025;-76
2022/02/06 10:50:28;;;;;;;8.25;4.40;;;;;;;5.83;55.10;97939.27;1688015;84;21000;-76
2022/02/06 10:53:15;;;;;;;6.97;4.20;;;;;;;5.90;57.04;97938.34;1674304;84;21030;-76
2022/02/06 10:56:02;;;;;;;7.87;4.72;;;;;;;5.94;54.76;97940.89;1672408;85;20998;-76
2022/02/06 10:58:34;;;;;;;6.62;4.08;;;;;;;6.05;54.51;97939.49;1672396;86;21020;-76
2022/02/06 11:01:10;;;;;;;8.58;4.35;;;;;;;6.23;53.33;97935.34;1673726;84;20978;-76
2022/02/06 11:03:39;;;;;;;7.58;4.65;;;;;;;6.47;55.93;97927.10;1700208;84;20997;-76
2022/02/06 11:06:42;;;;;;;9.95;4.65;;;;;;;6.71;54.93;97921.49;1702066;84;21474;-76
2022/02/06 11:08:55;;;;;;;12.00;5.90;;;;;;;7.03;54.84;97911.34;1699640;84;21028;-76
2022/02/06 11:11:27;;;;;;;8.53;5.40;;;;;;;7.38;54.74;97911.17;1676237;84;21065;-76
2022/02/06 11:14:06;;;;;;;7.72;4.53;;;;;;;7.52;54.43;97901.23;1671161;86;21088;-76
2022/02/06 11:16:38;;;;;;;10.70;4.90;;;;;;;7.68;48.27;97901.41;1672224;85;21053;-77
2022/02/06 11:19:07;;;;;;;7.90;4.42;;;;;;;8.04;46.66;97891.88;1671366;86;21051;-76
2022/02/06 11:21:33;;;;;;;7.90;3.92;;;;;;;8.48;48.73;97877.74;1686738;84;21042;-76
2022/02/06 11:24:00;;;;;;;9.10;3.90;;;;;;;8.67;48.27;97878.20;1673735;85;21001;-76
2022/02/06 11:26:27;;;;;;;9.40;4.95;;;;;;;8.96;48.70;97879.70;1658325;86;21052;-76
2022/02/06 11:29:02;;;;;;;7.45;4.28;;;;;;;9.01;46.17;97879.14;1714622;83;21031;-76
2022/02/06 11:31:26;;;;;;;8.98;4.55;;;;;;;8.85;46.08;97868.95;1717749;82;21028;-76
2022/02/06 11:33:52;;;;;;;4.75;2.80;;;;;;;8.68;46.06;97865.88;1726908;83;21034;-76
2022/02/06 11:42:57;;;;;;;6.10;3.45;;;;;;;8.58;43.13;97854.64;1726254;83;21022;-76
2022/02/06 11:44:52;;;;;;;6.65;3.80;;;;;;;8.65;45.29;97846.13;1724873;83;21004;-77
2022/02/06 11:47:29;;;;;;;10.38;5.87;;;;;;;8.62;48.01;97854.11;1681081;85;21447;-77
2022/02/06 11:50:06;;;;;;;11.55;5.10;;;;;;;8.43;48.48;97843.50;1660614;86;21049;-77
2022/02/06 11:52:53;;;;;;;11.80;5.17;;;;;;;8.22;45.88;97845.32;1671953;86;21010;-76
2022/02/06 11:55:49;;;;;;;8.15;5.00;;;;;;;7.95;45.27;97836.66;1672499;86;21069;-76
2022/02/06 11:58:31;;;;;;;4.70;2.70;;;;;;;7.76;46.65;97838.36;1655802;85;21416;-76
2022/02/06 12:01:16;;;;;;;5.37;2.90;;;;;;;7.53;46.05;97837.52;1654464;87;21060;-75
2022/02/06 12:03:54;;;;;;;6.85;2.55;;;;;;;7.33;43.71;97842.72;1626735;88;21470;-76
2022/02/06 12:06:29;;;;;;;5.53;3.02;;;;;;;7.20;45.45;97828.91;1666711;85;21426;-77
2022/02/06 12:09:04;;;;;;;6.17;3.15;;;;;;;7.18;47.82;97825.88;1684049;85;21438;-77
2022/02/06 12:11:34;;;;;;;5.92;3.52;;;;;;;7.17;48.20;97819.73;1684035;85;21016;-78
2022/02/06 12:14:20;;;;;;;5.40;3.70;;;;;;;7.12;47.43;97821.15;1683832;85;21008;-77
2022/02/06 12:16:53;;;;;;;5.30;2.65;;;;;;;7.06;47.99;97817.75;1708223;84;21049;-76
2022/02/06 12:19:27;;;;;;;5.45;2.83;;;;;;;6.96;48.52;97817.03;1711971;84;21505;-76
2022/02/06 12:21:56;;;;;;;9.65;5.62;;;;;;;6.93;49.23;97805.25;1712446;84;21016;-76
2022/02/06 12:24:43;;;;;;;6.08;3.92;;;;;;;6.90;49.06;97800.03;1712290;84;21099;-76
2022/02/06 12:27:27;;;;;;;5.35;3.27;;;;;;;6.88;48.16;97796.09;1712125;84;21059;-76
2022/02/06 12:30:00;;;;;;;;;;;;;;;6.83;47.40;97786.09;1714967;83;21096;-76
2022/02/06 12:32:34;;;;;;;5.75;3.40;;;;;;;6.84;48.79;97770.70;1695470;83;20098;-76
2022/02/06 12:37:57;;;;;;;30.27;13.25;;;;;;;7.12;48.92;97763.61;1653908;87;21069;-76
2022/02/06 12:40:27;;;;;;;14.45;8.00;;;;;;;7.28;49.21;97767.25;1636482;88;21053;-76
2022/02/06 12:43:01;;;;;;;9.45;3.58;;;;;;;7.41;49.19;97758.20;1636619;88;21027;-76
2022/02/06 12:45:31;;;;;;;6.00;3.52;;;;;;;7.40;46.80;97770.97;1666732;86;21048;-76
2022/02/06 12:48:09;;;;;;;7.78;3.58;;;;;;;7.31;45.46;97767.20;1726545;83;21103;-76
2022/02/06 12:50:36;;;;;;;10.60;4.58;;;;;;;7.23;42.68;97764.72;1725425;83;21047;-76
2022/02/06 12:53:06;;;;;;;9.03;3.22;;;;;;;7.30;46.40;97758.41;1726478;83;20999;-76
2022/02/06 12:55:36;;;;;;;7.20;3.50;;;;;;;7.42;45.78;97762.56;1700722;83;21060;-76
2022/02/06 12:58:07;;;;;;;7.55;3.27;;;;;;;7.38;43.16;97752.55;1696131;85;21020;-76
2022/02/06 13:00:44;;;;;;;6.65;3.12;;;;;;;7.31;42.83;97753.55;1695935;85;21032;-76
2022/02/06 13:03:34;;;;;;;6.20;2.70;;;;;;;7.31;43.66;97761.46;1695461;84;21016;-76
2022/02/06 13:06:05;;;;;;;5.87;2.33;;;;;;;7.23;44.95;97760.30;1697586;84;21043;-76
2022/02/06 13:08:38;;;;;;;7.45;3.65;;;;;;;7.15;45.50;97761.36;1697306;84;21044;-76
2022/02/06 13:11:20;;;;;;;6.05;2.75;;;;;;;7.02;43.93;97759.41;1695158;84;21039;-76
2022/02/06 13:14:08;;;;;;;4.30;2.60;;;;;;;6.92;45.70;97754.75;1718413;83;21024;-76
2022/02/06 13:25:00;;;;;;;8.50;2.90;;;;;;;6.46;46.75;97738.45;1695944;85;21380;-76
2022/02/06 13:30:07;;;;;;;5.95;3.30;;;;;;;6.31;45.27;97743.98;1695955;85;21058;-76
2022/02/06 13:32:41;;;;;;;7.67;4.12;;;;;;;6.16;45.37;97731.48;1700125;83;21017;-76
2022/02/06 13:35:27;;;;;;;11.00;4.60;;;;;;;6.07;46.56;97728.53;1724376;83;21079;-76
2022/02/06 13:37:49;;;;;;;11.97;3.50;;;;;;;6.01;47.00;97729.04;1723284;83;21068;-76
2022/02/06 13:40:17;;;;;;;6.05;3.02;;;;;;;5.94;46.39;97713.83;1724849;83;21028;-76
2022/02/06 13:42:57;;;;;;;5.65;3.83;;;;;;;5.85;45.59;97724.48;1723286;83;21120;-76
2022/02/06 13:45:25;;;;;;;6.65;3.05;;;;;;;5.80;46.12;97720.16;1722817;83;21040;-76
2022/02/06 13:47:55;;;;;;;6.42;3.05;;;;;;;5.75;46.66;97719.79;1723840;83;21386;-76
2022/02/06 13:50:24;;;;;;;6.30;2.60;;;;;;;5.61;45.96;97709.02;1723630;83;20989;-76
2022/02/06 13:53:15;;;;;;;5.42;2.92;;;;;;;5.57;46.47;97709.09;1693163;85;21441;-76
2022/02/06 13:55:51;;;;;;;5.20;2.95;;;;;;;5.54;47.78;97706.06;1693360;85;21442;-76
2022/02/06 13:58:26;;;;;;;5.95;3.62;;;;;;;5.52;47.13;97695.56;1693307;83;21055;-76
2022/02/06 14:01:04;;;;;;;6.08;3.37;;;;;;;5.47;46.92;97700.02;1700165;83;21027;-76
2022/02/06 14:03:52;;;;;;;5.22;2.80;;;;;;;5.46;46.75;97694.78;1726360;83;21028;-76
2022/02/06 14:06:24;;;;;;;6.00;3.15;;;;;;;5.45;47.69;97687.79;1726065;83;21047;-76
2022/02/06 14:09:07;;;;;;;5.15;2.85;;;;;;;5.41;47.62;97682.56;1714213;83;20997;-76
2022/02/06 14:11:31;;;;;;;7.20;3.27;;;;;;;5.38;47.72;97672.55;1692384;85;21430;-76
2022/02/06 14:14:25;;;;;;;6.28;3.12;;;;;;;5.34;48.21;97663.84;1693109;85;21065;-76
2022/02/06 14:16:56;;;;;;;;;;;;;;;5.30;47.85;97649.00;1695856;85;21036;-76
2022/02/06 14:19:43;;;;;;;5.40;2.45;;;;;;;5.23;48.96;97642.96;1709904;83;20140;-76
2022/02/06 14:22:14;;;;;;;7.37;3.27;;;;;;;5.20;49.38;97634.27;1723607;83;20968;-76
2022/02/06 14:25:05;;;;;;;6.70;3.05;;;;;;;5.17;49.37;97634.30;1723693;83;21056;-76